Time,TemperatureF,DewpointF,PressureIn,WindDirection,WindDirectionDegrees,WindSpeedMPH,WindSpeedGustMPH,Humidity,HourlyPrecipIn,Conditions,Clouds,dailyrainin,SoftwareType,DateUTC
2013-01-24 00:00:00,54.5,31.2,27.57,SE,135,0.4,0.4,41,0.00,,,0.00,WUHU216HW,2013-01-24 07:00:00,
2013-01-24 00:05:00,54.5,31.2,27.57,ESE,113,0.4,0.4,41,0.00,,,0.00,WUHU216HW,2013-01-24 07:05:00,
2013-01-24 00:30:00,54.4,31.1,27.57,ESE,113,0.4,0.4,41,0.00,,,0.00,WUHU216HW,2013-01-24 07:30:00,
2013-01-24 00:36:00,54.4,31.1,27.57,ESE,113,0.4,0.4,41,0.00,,,0.00,WUHU216HW,2013-01-24 07:36:00,
2013-01-24 01:00:00,54.9,32.1,27.58,ESE,113,0.0,0.0,42,0.00,,,0.00,WUHU216HW,2013-01-24 08:00:00,
2013-01-24 01:05:00,55.1,32.3,27.58,ESE,113,0.0,0.0,42,0.00,,,0.00,WUHU216HW,2013-01-24 08:05:00,
2013-01-24 01:30:00,55.1,32.3,27.58,ESE,113,0.0,0.0,42,0.00,,,0.00,WUHU216HW,2013-01-24 08:30:00,
2013-01-24 01:31:00,55.1,32.3,27.58,ESE,113,0.0,0.0,42,0.00,,,0.00,WUHU216HW,2013-01-24 08:31:00,
2013-01-24 01:36:00,55.1,32.3,27.58,ESE,113,0.0,0.0,42,0.00,,,0.00,WUHU216HW,2013-01-24 08:36:00,
2013-01-24 02:00:00,54.9,32.7,27.58,ENE,68,0.0,0.0,43,0.00,,,0.00,WUHU216HW,2013-01-24 09:00:00,
2013-01-24 02:05:00,55.1,32.9,27.58,ENE,68,0.0,0.0,43,0.00,,,0.00,WUHU216HW,2013-01-24 09:05:00,
2013-01-24 02:30:00,55.6,32.8,27.57,ENE,68,0.0,0.0,42,0.00,,,0.00,WUHU216HW,2013-01-24 09:30:00,
2013-01-24 02:35:00,55.6,32.8,27.57,ENE,68,0.0,0.0,42,0.00,,,0.00,WUHU216HW,2013-01-24 09:35:00,
2013-01-24 03:00:00,55.6,33.3,27.58,NNE,23,0.0,0.0,43,0.00,,,0.00,WUHU216HW,2013-01-24 10:00:00,
2013-01-24 03:05:00,55.6,33.3,27.58,NNE,23,0.0,0.0,43,0.00,,,0.00,WUHU216HW,2013-01-24 10:05:00,
2013-01-24 03:10:00,55.6,33.3,27.58,NNE,23,0.0,0.0,43,0.00,,,0.00,WUHU216HW,2013-01-24 10:10:00,
2013-01-24 03:30:00,55.4,33.8,27.58,WNW,293,0.0,0.0,44,0.00,,,0.00,WUHU216HW,2013-01-24 10:30:00,
2013-01-24 03:31:00,55.4,33.8,27.58,WNW,293,0.0,0.0,44,0.00,,,0.00,WUHU216HW,2013-01-24 10:31:00,
2013-01-24 03:35:00,55.4,33.8,27.58,WNW,293,0.0,0.0,44,0.00,,,0.00,WUHU216HW,2013-01-24 10:35:00,
2013-01-24 04:00:00,55.1,33.9,27.57,NE,45,0.0,0.0,45,0.00,,,0.00,WUHU216HW,2013-01-24 11:00:00,
2013-01-24 04:05:00,55.1,33.9,27.57,NE,45,0.0,0.0,45,0.00,,,0.00,WUHU216HW,2013-01-24 11:05:00,
2013-01-24 04:30:00,54.9,34.4,27.57,North,0,0.0,0.0,46,0.00,,,0.00,WUHU216HW,2013-01-24 11:30:00,
2013-01-24 04:31:00,54.7,34.2,27.57,North,0,0.0,0.0,46,0.00,,,0.00,WUHU216HW,2013-01-24 11:31:00,
2013-01-24 04:36:00,54.9,34.4,27.57,North,0,0.0,0.0,46,0.00,,,0.00,WUHU216HW,2013-01-24 11:36:00,
2013-01-24 05:00:00,54.5,34.6,27.57,SE,135,0.0,0.0,47,0.00,,,0.00,WUHU216HW,2013-01-24 12:00:00,
2013-01-24 05:05:00,54.5,34.6,27.57,SE,135,0.0,0.0,47,0.00,,,0.00,WUHU216HW,2013-01-24 12:05:00,
2013-01-24 05:30:00,54.7,34.7,27.57,SE,135,0.0,0.0,47,0.00,,,0.00,WUHU216HW,2013-01-24 12:30:00,
2013-01-24 05:35:00,54.7,34.7,27.57,SE,135,0.0,0.0,47,0.00,,,0.00,WUHU216HW,2013-01-24 12:35:00,
2013-01-24 06:00:00,54.4,34.5,27.56,ESE,113,0.0,0.0,47,0.00,,,0.00,WUHU216HW,2013-01-24 13:00:00,
2013-01-24 06:05:00,54.4,34.5,27.56,ESE,113,0.0,0.0,47,0.00,,,0.00,WUHU216HW,2013-01-24 13:05:00,
2013-01-24 06:30:00,54.4,34.5,27.56,North,0,0.0,0.0,47,0.00,,,0.00,WUHU216HW,2013-01-24 13:30:00,
2013-01-24 06:35:00,54.4,34.5,27.56,North,0,0.0,0.0,47,0.00,,,0.00,WUHU216HW,2013-01-24 13:35:00,
2013-01-24 06:41:00,54.4,34.5,27.56,North,0,0.0,0.0,47,0.00,,,0.00,WUHU216HW,2013-01-24 13:41:00,
2013-01-24 07:00:00,54.2,35.4,27.58,North,0,0.0,0.0,49,0.00,,,0.00,WUHU216HW,2013-01-24 14:00:00,
2013-01-24 07:05:00,54.2,35.4,27.58,North,0,0.0,0.0,49,0.00,,,0.00,WUHU216HW,2013-01-24 14:05:00,
2013-01-24 07:30:00,54.0,35.8,27.59,SW,225,0.4,0.4,50,0.00,,,0.00,WUHU216HW,2013-01-24 14:30:00,
2013-01-24 07:35:00,54.0,35.8,27.59,SW,225,0.2,0.4,50,0.00,,,0.00,WUHU216HW,2013-01-24 14:35:00,
2013-01-24 08:00:00,54.2,35.4,27.59,NNE,23,0.0,0.0,49,0.00,,,0.00,WUHU216HW,2013-01-24 15:00:00,
2013-01-24 08:05:00,54.2,35.4,27.59,NNE,23,0.0,0.0,49,0.00,,,0.00,WUHU216HW,2013-01-24 15:05:00,
2013-01-24 08:30:00,55.1,36.7,27.59,NNW,338,0.0,0.0,50,0.00,,,0.00,WUHU216HW,2013-01-24 15:30:00,
2013-01-24 08:31:00,55.1,36.7,27.59,NNW,338,0.0,0.0,50,0.00,,,0.00,WUHU216HW,2013-01-24 15:31:00,
2013-01-24 08:36:00,55.1,36.7,27.59,NNW,338,0.0,0.0,50,0.00,,,0.00,WUHU216HW,2013-01-24 15:36:00,
2013-01-24 09:00:00,57.1,37.5,27.60,NNW,338,0.4,0.4,48,0.00,,,0.00,WUHU216HW,2013-01-24 16:00:00,
2013-01-24 09:05:00,57.1,37.5,27.60,North,0,0.4,0.4,48,0.00,,,0.00,WUHU216HW,2013-01-24 16:05:00,
2013-01-24 09:10:00,57.1,37.5,27.60,North,0,0.4,0.4,48,0.00,,,0.00,WUHU216HW,2013-01-24 16:10:00,
2013-01-24 09:30:00,59.9,37.9,27.61,NW,315,0.0,0.0,44,0.00,,,0.00,WUHU216HW,2013-01-24 16:30:00,
2013-01-24 09:31:00,59.9,37.9,27.61,NW,315,0.0,0.0,44,0.00,,,0.00,WUHU216HW,2013-01-24 16:31:00,
2013-01-24 09:36:00,59.9,37.9,27.61,NW,315,0.0,0.0,44,0.00,,,0.00,WUHU216HW,2013-01-24 16:36:00,
2013-01-24 10:00:00,61.4,37.5,27.61,SW,225,0.0,0.0,41,0.00,,,0.00,WUHU216HW,2013-01-24 17:00:00,
2013-01-24 10:05:00,61.4,37.5,27.61,SW,225,0.0,0.0,41,0.00,,,0.00,WUHU216HW,2013-01-24 17:05:00,
2013-01-24 10:30:00,62.3,39.4,27.63,SW,225,0.0,0.0,43,0.00,,,0.00,WUHU216HW,2013-01-24 17:30:00,
2013-01-24 10:31:00,62.3,39.4,27.63,SE,135,0.0,0.0,43,0.00,,,0.00,WUHU216HW,2013-01-24 17:31:00,
2013-01-24 10:36:00,62.3,39.4,27.63,SW,225,0.0,0.0,43,0.00,,,0.00,WUHU216HW,2013-01-24 17:36:00,
2013-01-24 11:00:00,62.6,42.6,27.62,SW,225,0.7,0.7,48,0.00,,,0.00,WUHU216HW,2013-01-24 18:00:00,
2013-01-24 11:05:00,62.6,42.6,27.62,WSW,248,0.7,0.7,48,0.00,,,0.00,WUHU216HW,2013-01-24 18:05:00,
2013-01-24 11:30:00,61.9,43.6,27.62,SSE,158,0.0,0.0,51,0.00,,,0.00,WUHU216HW,2013-01-24 18:30:00,
2013-01-24 11:31:00,61.7,43.4,27.62,SSE,158,0.0,0.0,51,0.00,,,0.00,WUHU216HW,2013-01-24 18:31:00,
2013-01-24 11:36:00,61.9,43.6,27.62,SSE,158,0.0,0.0,51,0.00,,,0.00,WUHU216HW,2013-01-24 18:36:00,
2013-01-24 12:00:00,61.4,45.6,27.63,WSW,248,0.0,0.0,56,0.01,,,0.00,WUHU216HW,2013-01-24 19:00:00,
2013-01-24 12:05:00,61.4,45.6,27.63,WSW,248,0.0,0.0,56,0.01,,,0.01,WUHU216HW,2013-01-24 19:05:00,
2013-01-24 12:30:00,60.3,46.9,27.61,East,90,0.0,0.0,61,0.02,,,0.02,WUHU216HW,2013-01-24 19:30:00,
2013-01-24 12:31:00,60.5,47.1,27.61,East,90,0.0,0.0,61,0.02,,,0.01,WUHU216HW,2013-01-24 19:31:00,
2013-01-24 12:36:00,60.3,46.9,27.61,East,90,0.0,0.0,61,0.02,,,0.02,WUHU216HW,2013-01-24 19:36:00,
2013-01-24 13:00:00,60.1,48.3,27.60,ESE,113,0.9,0.9,65,0.01,,,0.02,WUHU216HW,2013-01-24 20:00:00,
2013-01-24 13:05:00,60.1,48.3,27.60,ESE,113,0.4,0.9,65,0.01,,,0.02,WUHU216HW,2013-01-24 20:05:00,
2013-01-24 13:30:00,60.7,49.3,27.57,NE,45,0.4,0.4,66,0.00,,,0.02,WUHU216HW,2013-01-24 20:30:00,
2013-01-24 13:31:00,60.7,48.9,27.57,East,90,0.4,0.4,65,0.00,,,0.02,WUHU216HW,2013-01-24 20:31:00,
2013-01-24 13:36:00,60.7,49.3,27.57,NE,45,0.4,0.4,66,0.00,,,0.02,WUHU216HW,2013-01-24 20:36:00,
2013-01-24 14:00:00,61.9,50.4,27.55,East,90,0.4,0.4,66,0.00,,,0.02,WUHU216HW,2013-01-24 21:00:00,
2013-01-24 14:05:00,61.9,50.4,27.55,ESE,113,0.7,0.7,66,0.00,,,0.02,WUHU216HW,2013-01-24 21:05:00,
2013-01-24 14:30:00,62.8,50.9,27.54,SE,135,0.0,0.0,65,0.00,,,0.02,WUHU216HW,2013-01-24 21:30:00,
2013-01-24 14:31:00,62.8,50.9,27.54,SE,135,0.0,0.0,65,0.00,,,0.02,WUHU216HW,2013-01-24 21:31:00,
2013-01-24 14:36:00,62.8,50.9,27.54,SE,135,0.0,0.0,65,0.00,,,0.02,WUHU216HW,2013-01-24 21:36:00,
2013-01-24 15:00:00,63.2,50.3,27.54,SW,225,0.7,0.7,63,0.00,,,0.02,WUHU216HW,2013-01-24 22:00:00,
2013-01-24 15:05:00,63.0,50.2,27.54,SW,225,0.7,0.7,63,0.00,,,0.02,WUHU216HW,2013-01-24 22:05:00,
2013-01-24 15:30:00,63.0,50.6,27.56,WSW,248,2.2,2.2,64,0.00,,,0.02,WUHU216HW,2013-01-24 22:30:00,
2013-01-24 15:31:00,63.0,50.6,27.56,WSW,248,1.1,1.1,64,0.00,,,0.02,WUHU216HW,2013-01-24 22:31:00,
2013-01-24 15:36:00,63.0,50.6,27.56,WSW,248,2.2,2.2,64,0.00,,,0.02,WUHU216HW,2013-01-24 22:36:00,
2013-01-24 16:00:00,62.6,49.9,27.57,NW,315,0.0,0.0,63,0.00,,,0.02,WUHU216HW,2013-01-24 23:00:00,
2013-01-24 16:05:00,62.6,49.9,27.57,NW,315,0.0,0.0,63,0.00,,,0.02,WUHU216HW,2013-01-24 23:05:00,
2013-01-24 16:10:00,62.6,49.9,27.57,NW,315,0.0,0.0,63,0.00,,,0.02,WUHU216HW,2013-01-24 23:10:00,
2013-01-24 16:30:00,62.3,50.0,27.57,North,0,0.9,0.9,64,0.00,,,0.02,WUHU216HW,2013-01-24 23:30:00,
2013-01-24 16:31:00,62.3,50.0,27.57,North,0,0.4,0.4,64,0.00,,,0.02,WUHU216HW,2013-01-24 23:31:00,
2013-01-24 16:36:00,62.3,50.0,27.57,North,0,0.9,0.9,64,0.00,,,0.02,WUHU216HW,2013-01-24 23:36:00,
2013-01-24 17:00:00,62.3,49.5,27.58,WNW,293,0.0,0.0,63,0.00,,,0.02,WUHU216HW,2013-01-25 00:00:00,
2013-01-24 17:05:00,62.3,49.5,27.58,WNW,293,0.0,0.0,63,0.00,,,0.02,WUHU216HW,2013-01-25 00:05:00,
2013-01-24 17:30:00,61.7,49.4,27.58,NE,45,0.0,0.0,64,0.00,,,0.02,WUHU216HW,2013-01-25 00:30:00,
2013-01-24 17:31:00,61.7,49.4,27.58,NE,45,0.0,0.0,64,0.00,,,0.02,WUHU216HW,2013-01-25 00:31:00,
2013-01-24 17:36:00,61.7,49.4,27.58,NE,45,0.0,0.0,64,0.00,,,0.02,WUHU216HW,2013-01-25 00:36:00,
2013-01-24 18:00:00,61.0,49.2,27.56,ESE,113,0.0,0.0,65,0.00,,,0.02,WUHU216HW,2013-01-25 01:00:00,
2013-01-24 18:05:00,61.0,49.2,27.56,ESE,113,0.0,0.0,65,0.00,,,0.02,WUHU216HW,2013-01-25 01:05:00,
2013-01-24 18:30:00,60.8,49.1,27.58,SW,225,0.7,0.7,65,0.00,,,0.02,WUHU216HW,2013-01-25 01:30:00,
2013-01-24 18:31:00,60.7,48.9,27.58,SW,225,0.7,0.7,65,0.00,,,0.02,WUHU216HW,2013-01-25 01:31:00,
2013-01-24 18:36:00,60.8,49.1,27.58,SW,225,0.7,0.7,65,0.00,,,0.02,WUHU216HW,2013-01-25 01:36:00,
2013-01-24 19:00:00,60.3,48.5,27.59,NNW,338,0.0,0.0,65,0.00,,,0.02,WUHU216HW,2013-01-25 02:00:00,
2013-01-24 19:05:00,60.3,48.5,27.59,NNW,338,0.0,0.0,65,0.00,,,0.02,WUHU216HW,2013-01-25 02:05:00,
2013-01-24 19:10:00,60.3,48.5,27.59,NNW,338,0.0,0.0,65,0.00,,,0.02,WUHU216HW,2013-01-25 02:10:00,
2013-01-24 19:30:00,59.9,48.6,27.58,NE,45,0.0,0.0,66,0.00,,,0.02,WUHU216HW,2013-01-25 02:30:00,
2013-01-24 19:31:00,59.9,48.6,27.58,NE,45,0.0,0.0,66,0.00,,,0.02,WUHU216HW,2013-01-25 02:31:00,
2013-01-24 19:36:00,59.9,48.6,27.58,NE,45,0.0,0.0,66,0.00,,,0.02,WUHU216HW,2013-01-25 02:36:00,
2013-01-24 20:00:00,59.4,48.9,27.58,NNW,338,0.0,0.0,68,0.00,,,0.02,WUHU216HW,2013-01-25 03:00:00,
2013-01-24 20:05:00,59.2,48.7,27.58,NNW,338,0.0,0.0,68,0.00,,,0.02,WUHU216HW,2013-01-25 03:05:00,
2013-01-24 20:10:00,59.2,48.7,27.58,NNW,338,0.0,0.0,68,0.00,,,0.02,WUHU216HW,2013-01-25 03:10:00,
2013-01-24 20:30:00,58.9,49.1,27.59,SE,135,0.0,0.0,70,0.00,,,0.02,WUHU216HW,2013-01-25 03:30:00,
2013-01-24 20:31:00,58.9,49.1,27.59,SE,135,0.0,0.0,70,0.00,,,0.02,WUHU216HW,2013-01-25 03:31:00,
2013-01-24 20:36:00,58.9,49.1,27.59,SE,135,0.0,0.0,70,0.00,,,0.02,WUHU216HW,2013-01-25 03:36:00,
2013-01-24 21:00:00,58.7,49.0,27.59,NW,315,0.0,0.0,70,0.00,,,0.02,WUHU216HW,2013-01-25 04:00:00,
2013-01-24 21:05:00,58.7,49.0,27.59,NW,315,0.0,0.0,70,0.00,,,0.02,WUHU216HW,2013-01-25 04:05:00,
2013-01-24 21:30:00,58.5,49.1,27.60,WSW,248,0.0,0.0,71,0.00,,,0.02,WUHU216HW,2013-01-25 04:30:00,
2013-01-24 21:31:00,58.5,49.1,27.60,WSW,248,0.0,0.0,71,0.00,,,0.02,WUHU216HW,2013-01-25 04:31:00,
2013-01-24 21:36:00,58.5,49.1,27.60,WSW,248,0.0,0.0,71,0.00,,,0.02,WUHU216HW,2013-01-25 04:36:00,
2013-01-24 22:00:00,58.1,49.1,27.60,NNW,338,0.0,0.0,72,0.00,,,0.02,WUHU216HW,2013-01-25 05:00:00,
2013-01-24 22:01:00,58.1,49.1,27.60,NNW,338,0.0,0.0,72,0.00,,,0.02,WUHU216HW,2013-01-25 05:01:00,
2013-01-24 22:03:00,58.1,49.1,27.60,NNW,338,0.0,0.0,72,0.00,,,0.02,WUHU216HW,2013-01-25 05:03:00,
2013-01-24 22:08:00,58.1,49.1,27.60,NNW,338,0.0,0.0,72,0.00,,,0.02,WUHU216HW,2013-01-25 05:08:00,
2013-01-24 22:30:00,58.0,49.3,27.59,NNE,23,0.0,0.0,73,0.00,,,0.02,WUHU216HW,2013-01-25 05:30:00,
2013-01-24 22:31:00,58.0,49.3,27.59,NNE,23,0.0,0.0,73,0.00,,,0.02,WUHU216HW,2013-01-25 05:31:00,
2013-01-24 22:36:00,58.0,49.3,27.59,NNE,23,0.0,0.0,73,0.00,,,0.02,WUHU216HW,2013-01-25 05:36:00,
2013-01-24 22:41:00,58.0,49.3,27.59,NNE,23,0.0,0.0,73,0.00,,,0.02,WUHU216HW,2013-01-25 05:41:00,
2013-01-24 23:00:00,57.8,49.1,27.60,NW,315,0.0,0.0,73,0.00,,,0.02,WUHU216HW,2013-01-25 06:00:00,
2013-01-24 23:05:00,57.8,49.1,27.60,NW,315,0.0,0.0,73,0.00,,,0.02,WUHU216HW,2013-01-25 06:05:00,
2013-01-24 23:30:00,57.4,49.1,27.58,North,0,0.0,0.0,74,0.00,,,0.02,WUHU216HW,2013-01-25 06:30:00,
2013-01-24 23:31:00,57.6,49.3,27.58,North,0,0.0,0.0,74,0.00,,,0.02,WUHU216HW,2013-01-25 06:31:00,
2013-01-24 23:36:00,57.4,49.1,27.58,North,0,0.0,0.0,74,0.00,,,0.02,WUHU216HW,2013-01-25 06:36:00,